sensor_id;sensor_type;location;lat;lon;timestamp;temperature;humidity
69189;DHT22;56302;52.322;5.926;2023-01-15T00:00:47;5.80;98.60
69189;DHT22;56302;52.322;5.926;2023-01-15T00:03:12;5.80;98.30
69189;DHT22;56302;52.322;5.926;2023-01-15T00:05:38;5.70;98.10
69189;DHT22;56302;52.322;5.926;2023-01-15T00:08:04;5.80;98.10
69189;DHT22;56302;52.322;5.926;2023-01-15T00:10:29;5.70;98.00
69189;DHT22;56302;52.322;5.926;2023-01-15T00:12:55;5.70;97.80
69189;DHT22;56302;52.322;5.926;2023-01-15T00:15:20;5.70;97.60
69189;DHT22;56302;52.322;5.926;2023-01-15T00:17:46;5.70;97.40
69189;DHT22;56302;52.322;5.926;2023-01-15T00:20:11;5.70;97.20
69189;DHT22;56302;52.322;5.926;2023-01-15T00:22:37;5.70;97.10
69189;DHT22;56302;52.322;5.926;2023-01-15T00:25:03;5.70;96.90
69189;DHT22;56302;52.322;5.926;2023-01-15T00:27:48;5.70;97.00
69189;DHT22;56302;52.322;5.926;2023-01-15T00:30:14;5.70;96.90
69189;DHT22;56302;52.322;5.926;2023-01-15T00:32:41;5.70;96.90
69189;DHT22;56302;52.322;5.926;2023-01-15T00:35:11;5.70;96.70
69189;DHT22;56302;52.322;5.926;2023-01-15T00:37:38;5.70;96.50
69189;DHT22;56302;52.322;5.926;2023-01-15T00:40:03;5.70;96.60
69189;DHT22;56302;52.322;5.926;2023-01-15T00:42:29;5.70;96.80
69189;DHT22;56302;52.322;5.926;2023-01-15T00:44:55;5.60;96.70
69189;DHT22;56302;52.322;5.926;2023-01-15T00:47:20;5.60;96.40
69189;DHT22;56302;52.322;5.926;2023-01-15T00:49:46;5.60;96.20
69189;DHT22;56302;52.322;5.926;2023-01-15T00:52:11;5.60;96.20
69189;DHT22;56302;52.322;5.926;2023-01-15T00:54:37;5.60;96.30
69189;DHT22;56302;52.322;5.926;2023-01-15T00:57:02;5.60;96.00
69189;DHT22;56302;52.322;5.926;2023-01-15T00:59:28;5.60;96.10
69189;DHT22;56302;52.322;5.926;2023-01-15T01:01:54;5.60;96.30
69189;DHT22;56302;52.322;5.926;2023-01-15T01:04:19;5.60;96.40
69189;DHT22;56302;52.322;5.926;2023-01-15T01:06:45;5.60;96.40
69189;DHT22;56302;52.322;5.926;2023-01-15T01:09:15;5.60;96.40
69189;DHT22;56302;52.322;5.926;2023-01-15T01:11:41;5.60;96.50
69189;DHT22;56302;52.322;5.926;2023-01-15T01:14:08;5.60;96.60
69189;DHT22;56302;52.322;5.926;2023-01-15T01:16:36;5.50;96.70
69189;DHT22;56302;52.322;5.926;2023-01-15T01:19:07;5.50;96.50
69189;DHT22;56302;52.322;5.926;2023-01-15T01:21:35;5.50;96.70
69189;DHT22;56302;52.322;5.926;2023-01-15T01:24:01;5.50;96.70
69189;DHT22;56302;52.322;5.926;2023-01-15T01:26:27;5.50;96.70
69189;DHT22;56302;52.322;5.926;2023-01-15T01:28:55;5.50;96.70
69189;DHT22;56302;52.322;5.926;2023-01-15T01:31:21;5.50;96.70
69189;DHT22;56302;52.322;5.926;2023-01-15T01:33:52;5.50;96.90
69189;DHT22;56302;52.322;5.926;2023-01-15T01:36:18;5.40;96.90
69189;DHT22;56302;52.322;5.926;2023-01-15T01:38:47;5.40;97.10
69189;DHT22;56302;52.322;5.926;2023-01-15T01:41:14;5.40;97.00
69189;DHT22;56302;52.322;5.926;2023-01-15T01:44:03;5.40;97.00
69189;DHT22;56302;52.322;5.926;2023-01-15T01:46:31;5.40;97.10
69189;DHT22;56302;52.322;5.926;2023-01-15T01:49:09;5.40;97.20
69189;DHT22;56302;52.322;5.926;2023-01-15T01:51:42;5.40;97.40
69189;DHT22;56302;52.322;5.926;2023-01-15T01:54:10;5.40;97.30
69189;DHT22;56302;52.322;5.926;2023-01-15T01:56:37;5.40;97.20
69189;DHT22;56302;52.322;5.926;2023-01-15T01:59:05;5.40;97.20
69189;DHT22;56302;52.322;5.926;2023-01-15T02:01:31;5.40;97.10
69189;DHT22;56302;52.322;5.926;2023-01-15T02:03:57;5.40;97.00
69189;DHT22;56302;52.322;5.926;2023-01-15T02:06:24;5.40;97.00
69189;DHT22;56302;52.322;5.926;2023-01-15T02:08:51;5.40;96.90
69189;DHT22;56302;52.322;5.926;2023-01-15T02:11:22;5.40;96.70
69189;DHT22;56302;52.322;5.926;2023-01-15T02:17:00;5.50;96.30
69189;DHT22;56302;52.322;5.926;2023-01-15T02:19:57;5.50;96.10
69189;DHT22;56302;52.322;5.926;2023-01-15T02:25:19;5.40;95.90
69189;DHT22;56302;52.322;5.926;2023-01-15T02:27:53;5.40;96.00
69189;DHT22;56302;52.322;5.926;2023-01-15T02:30:27;5.40;96.10
69189;DHT22;56302;52.322;5.926;2023-01-15T02:33:06;5.40;96.20
69189;DHT22;56302;52.322;5.926;2023-01-15T02:35:44;5.40;96.30
69189;DHT22;56302;52.322;5.926;2023-01-15T02:38:16;5.40;96.30
69189;DHT22;56302;52.322;5.926;2023-01-15T02:40:43;5.40;96.40
69189;DHT22;56302;52.322;5.926;2023-01-15T02:43:12;5.40;96.40
69189;DHT22;56302;52.322;5.926;2023-01-15T02:45:40;5.40;96.20
69189;DHT22;56302;52.322;5.926;2023-01-15T02:48:12;5.30;96.00
69189;DHT22;56302;52.322;5.926;2023-01-15T02:51:00;5.40;95.70
69189;DHT22;56302;52.322;5.926;2023-01-15T02:53:29;5.40;95.80
69189;DHT22;56302;52.322;5.926;2023-01-15T02:55:58;5.30;96.00
69189;DHT22;56302;52.322;5.926;2023-01-15T02:58:29;5.30;95.90
69189;DHT22;56302;52.322;5.926;2023-01-15T03:00:58;5.30;96.00
69189;DHT22;56302;52.322;5.926;2023-01-15T03:03:36;5.30;96.00
69189;DHT22;56302;52.322;5.926;2023-01-15T03:06:10;5.30;95.70
69189;DHT22;56302;52.322;5.926;2023-01-15T03:08:37;5.30;95.50
69189;DHT22;56302;52.322;5.926;2023-01-15T03:11:14;5.30;95.40
69189;DHT22;56302;52.322;5.926;2023-01-15T03:13:47;5.20;95.20
69189;DHT22;56302;52.322;5.926;2023-01-15T03:16:28;5.20;95.20
69189;DHT22;56302;52.322;5.926;2023-01-15T03:24:23;5.20;94.90
69189;DHT22;56302;52.322;5.926;2023-01-15T03:26:49;5.20;94.80
69189;DHT22;56302;52.322;5.926;2023-01-15T03:29:15;5.20;94.80
69189;DHT22;56302;52.322;5.926;2023-01-15T03:31:41;5.20;94.90
69189;DHT22;56302;52.322;5.926;2023-01-15T03:34:09;5.20;94.80
69189;DHT22;56302;52.322;5.926;2023-01-15T03:36:35;5.20;94.90
69189;DHT22;56302;52.322;5.926;2023-01-15T03:39:02;5.20;94.60
69189;DHT22;56302;52.322;5.926;2023-01-15T03:44:26;5.20;94.10
69189;DHT22;56302;52.322;5.926;2023-01-15T03:47:09;5.10;94.20
69189;DHT22;56302;52.322;5.926;2023-01-15T03:52:30;5.10;94.10
69189;DHT22;56302;52.322;5.926;2023-01-15T03:57:37;5.10;94.00
69189;DHT22;56302;52.322;5.926;2023-01-15T04:02:47;5.10;94.00
69189;DHT22;56302;52.322;5.926;2023-01-15T04:05:15;5.10;93.80
69189;DHT22;56302;52.322;5.926;2023-01-15T04:07:42;5.00;94.10
69189;DHT22;56302;52.322;5.926;2023-01-15T04:10:08;5.00;94.10
69189;DHT22;56302;52.322;5.926;2023-01-15T04:12:34;5.00;94.40
69189;DHT22;56302;52.322;5.926;2023-01-15T04:15:00;4.90;94.30
69189;DHT22;56302;52.322;5.926;2023-01-15T04:17:25;4.90;94.40
69189;DHT22;56302;52.322;5.926;2023-01-15T04:19:51;4.90;94.60
69189;DHT22;56302;52.322;5.926;2023-01-15T04:22:16;4.90;94.50
69189;DHT22;56302;52.322;5.926;2023-01-15T04:24:42;4.90;94.30
69189;DHT22;56302;52.322;5.926;2023-01-15T04:27:07;4.90;94.20
69189;DHT22;56302;52.322;5.926;2023-01-15T04:29:33;4.80;94.30
69189;DHT22;56302;52.322;5.926;2023-01-15T04:31:58;4.80;94.40
69189;DHT22;56302;52.322;5.926;2023-01-15T04:34:26;4.80;94.50
69189;DHT22;56302;52.322;5.926;2023-01-15T04:36:52;4.80;94.40
69189;DHT22;56302;52.322;5.926;2023-01-15T04:39:17;4.80;94.30
69189;DHT22;56302;52.322;5.926;2023-01-15T04:41:43;4.80;94.20
69189;DHT22;56302;52.322;5.926;2023-01-15T04:44:27;4.80;94.10
69189;DHT22;56302;52.322;5.926;2023-01-15T04:46:54;4.80;94.10
69189;DHT22;56302;52.322;5.926;2023-01-15T04:49:20;4.80;94.30
69189;DHT22;56302;52.322;5.926;2023-01-15T04:51:46;4.80;94.50
69189;DHT22;56302;52.322;5.926;2023-01-15T04:54:14;4.80;94.30
69189;DHT22;56302;52.322;5.926;2023-01-15T04:56:41;4.80;94.70
69189;DHT22;56302;52.322;5.926;2023-01-15T04:59:07;4.80;94.50
69189;DHT22;56302;52.322;5.926;2023-01-15T05:01:33;4.90;93.90
69189;DHT22;56302;52.322;5.926;2023-01-15T05:03:59;4.80;94.20
69189;DHT22;56302;52.322;5.926;2023-01-15T05:06:25;4.80;93.50
69189;DHT22;56302;52.322;5.926;2023-01-15T05:08:51;4.80;93.40
69189;DHT22;56302;52.322;5.926;2023-01-15T05:11:17;4.80;93.50
69189;DHT22;56302;52.322;5.926;2023-01-15T05:13:42;4.80;93.50
69189;DHT22;56302;52.322;5.926;2023-01-15T05:16:14;4.80;93.70
69189;DHT22;56302;52.322;5.926;2023-01-15T05:18:41;4.80;93.70
69189;DHT22;56302;52.322;5.926;2023-01-15T05:21:13;4.80;93.60
69189;DHT22;56302;52.322;5.926;2023-01-15T05:23:39;4.80;93.90
69189;DHT22;56302;52.322;5.926;2023-01-15T05:26:05;4.90;94.10
69189;DHT22;56302;52.322;5.926;2023-01-15T05:28:30;4.90;94.00
69189;DHT22;56302;52.322;5.926;2023-01-15T05:30:56;4.90;93.90
69189;DHT22;56302;52.322;5.926;2023-01-15T05:33:21;4.90;93.90
69189;DHT22;56302;52.322;5.926;2023-01-15T05:35:47;4.90;94.00
69189;DHT22;56302;52.322;5.926;2023-01-15T05:38:12;4.90;94.40
69189;DHT22;56302;52.322;5.926;2023-01-15T05:40:38;4.80;94.70
69189;DHT22;56302;52.322;5.926;2023-01-15T05:43:03;4.70;94.50
69189;DHT22;56302;52.322;5.926;2023-01-15T05:45:29;4.70;94.10
69189;DHT22;56302;52.322;5.926;2023-01-15T05:47:55;4.60;93.20
69189;DHT22;56302;52.322;5.926;2023-01-15T05:50:21;4.60;93.30
69189;DHT22;56302;52.322;5.926;2023-01-15T05:52:46;4.60;93.20
69189;DHT22;56302;52.322;5.926;2023-01-15T05:55:12;4.50;93.20
69189;DHT22;56302;52.322;5.926;2023-01-15T05:57:37;4.50;93.50
69189;DHT22;56302;52.322;5.926;2023-01-15T06:00:03;4.50;93.40
69189;DHT22;56302;52.322;5.926;2023-01-15T06:02:29;4.50;93.50
69189;DHT22;56302;52.322;5.926;2023-01-15T06:04:55;4.40;93.40
69189;DHT22;56302;52.322;5.926;2023-01-15T06:07:20;4.40;93.90
69189;DHT22;56302;52.322;5.926;2023-01-15T06:09:46;4.40;94.00
69189;DHT22;56302;52.322;5.926;2023-01-15T06:12:11;4.40;94.30
69189;DHT22;56302;52.322;5.926;2023-01-15T06:14:37;4.40;94.80
69189;DHT22;56302;52.322;5.926;2023-01-15T06:17:02;4.40;95.10
69189;DHT22;56302;52.322;5.926;2023-01-15T06:19:28;4.30;95.10
69189;DHT22;56302;52.322;5.926;2023-01-15T06:21:53;4.30;95.40
69189;DHT22;56302;52.322;5.926;2023-01-15T06:24:19;4.20;95.50
69189;DHT22;56302;52.322;5.926;2023-01-15T06:26:45;4.20;95.70
69189;DHT22;56302;52.322;5.926;2023-01-15T06:29:11;4.10;96.00
69189;DHT22;56302;52.322;5.926;2023-01-15T06:31:37;4.10;96.20
69189;DHT22;56302;52.322;5.926;2023-01-15T06:34:03;4.10;96.50
69189;DHT22;56302;52.322;5.926;2023-01-15T06:36:29;4.10;96.60
69189;DHT22;56302;52.322;5.926;2023-01-15T06:38:55;4.00;96.70
69189;DHT22;56302;52.322;5.926;2023-01-15T06:41:22;4.00;96.80
69189;DHT22;56302;52.322;5.926;2023-01-15T06:44:15;4.00;96.80
69189;DHT22;56302;52.322;5.926;2023-01-15T06:47:02;4.00;96.80
69189;DHT22;56302;52.322;5.926;2023-01-15T06:49:46;4.00;96.80
69189;DHT22;56302;52.322;5.926;2023-01-15T06:52:12;4.00;96.90
69189;DHT22;56302;52.322;5.926;2023-01-15T06:54:37;4.00;96.70
69189;DHT22;56302;52.322;5.926;2023-01-15T06:57:03;3.90;96.80
69189;DHT22;56302;52.322;5.926;2023-01-15T06:59:29;3.90;96.70
69189;DHT22;56302;52.322;5.926;2023-01-15T07:01:55;3.90;96.80
69189;DHT22;56302;52.322;5.926;2023-01-15T07:04:21;3.90;96.80
69189;DHT22;56302;52.322;5.926;2023-01-15T07:06:46;3.90;96.70
69189;DHT22;56302;52.322;5.926;2023-01-15T07:09:12;3.90;96.30
69189;DHT22;56302;52.322;5.926;2023-01-15T07:11:38;3.90;96.30
69189;DHT22;56302;52.322;5.926;2023-01-15T07:14:24;3.90;96.00
69189;DHT22;56302;52.322;5.926;2023-01-15T07:16:49;3.90;95.30
69189;DHT22;56302;52.322;5.926;2023-01-15T07:19:16;3.80;94.90
69189;DHT22;56302;52.322;5.926;2023-01-15T07:21:42;3.80;94.90
69189;DHT22;56302;52.322;5.926;2023-01-15T07:24:09;3.80;95.00
69189;DHT22;56302;52.322;5.926;2023-01-15T07:26:36;3.80;94.90
69189;DHT22;56302;52.322;5.926;2023-01-15T07:29:02;3.80;94.60
69189;DHT22;56302;52.322;5.926;2023-01-15T07:31:28;3.80;94.10
69189;DHT22;56302;52.322;5.926;2023-01-15T07:33:55;3.70;93.40
69189;DHT22;56302;52.322;5.926;2023-01-15T07:36:21;3.70;93.30
69189;DHT22;56302;52.322;5.926;2023-01-15T07:38:47;3.70;93.30
69189;DHT22;56302;52.322;5.926;2023-01-15T07:41:12;3.70;93.10
69189;DHT22;56302;52.322;5.926;2023-01-15T07:43:57;3.70;93.20
69189;DHT22;56302;52.322;5.926;2023-01-15T07:46:41;3.70;93.30
69189;DHT22;56302;52.322;5.926;2023-01-15T07:49:26;3.80;93.40
69189;DHT22;56302;52.322;5.926;2023-01-15T07:52:13;3.80;93.20
69189;DHT22;56302;52.322;5.926;2023-01-15T07:54:39;3.90;92.90
69189;DHT22;56302;52.322;5.926;2023-01-15T07:57:05;3.90;93.10
69189;DHT22;56302;52.322;5.926;2023-01-15T07:59:31;3.90;93.10
69189;DHT22;56302;52.322;5.926;2023-01-15T08:01:56;3.90;92.80
69189;DHT22;56302;52.322;5.926;2023-01-15T08:04:22;3.80;92.90
69189;DHT22;56302;52.322;5.926;2023-01-15T08:06:47;3.80;92.90
69189;DHT22;56302;52.322;5.926;2023-01-15T08:09:13;3.80;92.80
69189;DHT22;56302;52.322;5.926;2023-01-15T08:11:38;3.80;92.70
69189;DHT22;56302;52.322;5.926;2023-01-15T08:14:22;3.80;92.80
69189;DHT22;56302;52.322;5.926;2023-01-15T08:17:06;3.80;92.60
69189;DHT22;56302;52.322;5.926;2023-01-15T08:19:32;3.80;92.40
69189;DHT22;56302;52.322;5.926;2023-01-15T08:21:58;3.80;92.40
69189;DHT22;56302;52.322;5.926;2023-01-15T08:24:25;3.80;92.40
69189;DHT22;56302;52.322;5.926;2023-01-15T08:26:52;3.80;92.60
69189;DHT22;56302;52.322;5.926;2023-01-15T08:29:17;3.80;92.50
69189;DHT22;56302;52.322;5.926;2023-01-15T08:31:43;3.80;92.50
69189;DHT22;56302;52.322;5.926;2023-01-15T08:34:09;3.90;92.20
69189;DHT22;56302;52.322;5.926;2023-01-15T08:36:35;3.90;91.70
69189;DHT22;56302;52.322;5.926;2023-01-15T08:39:00;4.00;91.50
69189;DHT22;56302;52.322;5.926;2023-01-15T08:41:26;4.10;91.20
69189;DHT22;56302;52.322;5.926;2023-01-15T08:43:52;4.20;90.60
69189;DHT22;56302;52.322;5.926;2023-01-15T08:46:19;4.20;91.20
69189;DHT22;56302;52.322;5.926;2023-01-15T08:48:44;4.40;90.40
69189;DHT22;56302;52.322;5.926;2023-01-15T08:51:11;4.50;90.30
69189;DHT22;56302;52.322;5.926;2023-01-15T08:53:37;4.60;90.40
69189;DHT22;56302;52.322;5.926;2023-01-15T08:56:03;4.60;90.30
69189;DHT22;56302;52.322;5.926;2023-01-15T08:58:30;4.60;90.20
69189;DHT22;56302;52.322;5.926;2023-01-15T09:01:02;4.60;90.40
69189;DHT22;56302;52.322;5.926;2023-01-15T09:03:28;4.60;91.00
69189;DHT22;56302;52.322;5.926;2023-01-15T09:05:53;4.60;90.00
69189;DHT22;56302;52.322;5.926;2023-01-15T09:08:22;4.60;89.80
69189;DHT22;56302;52.322;5.926;2023-01-15T09:10:47;4.70;89.60
69189;DHT22;56302;52.322;5.926;2023-01-15T09:13:13;4.70;89.60
69189;DHT22;56302;52.322;5.926;2023-01-15T09:15:38;4.90;89.50
69189;DHT22;56302;52.322;5.926;2023-01-15T09:18:04;5.00;90.00
69189;DHT22;56302;52.322;5.926;2023-01-15T09:20:29;5.20;90.00
69189;DHT22;56302;52.322;5.926;2023-01-15T09:22:55;5.40;89.60
69189;DHT22;56302;52.322;5.926;2023-01-15T09:25:20;5.50;88.60
69189;DHT22;56302;52.322;5.926;2023-01-15T09:27:48;5.50;87.90
69189;DHT22;56302;52.322;5.926;2023-01-15T09:30:19;5.50;88.40
69189;DHT22;56302;52.322;5.926;2023-01-15T09:32:45;5.50;87.70
69189;DHT22;56302;52.322;5.926;2023-01-15T09:35:10;5.50;87.10
69189;DHT22;56302;52.322;5.926;2023-01-15T09:37:36;5.60;86.90
69189;DHT22;56302;52.322;5.926;2023-01-15T09:40:02;5.60;87.00
69189;DHT22;56302;52.322;5.926;2023-01-15T09:42:45;5.50;87.20
69189;DHT22;56302;52.322;5.926;2023-01-15T09:45:38;5.50;87.10
69189;DHT22;56302;52.322;5.926;2023-01-15T09:51:11;5.60;86.20
69189;DHT22;56302;52.322;5.926;2023-01-15T09:53:59;5.60;86.90
69189;DHT22;56302;52.322;5.926;2023-01-15T09:56:30;5.60;86.10
69189;DHT22;56302;52.322;5.926;2023-01-15T09:58:59;5.60;86.50
69189;DHT22;56302;52.322;5.926;2023-01-15T10:01:29;5.60;85.80
69189;DHT22;56302;52.322;5.926;2023-01-15T10:06:29;5.50;86.30
69189;DHT22;56302;52.322;5.926;2023-01-15T10:09:05;5.50;86.70
69189;DHT22;56302;52.322;5.926;2023-01-15T10:11:37;5.60;86.50
69189;DHT22;56302;52.322;5.926;2023-01-15T10:14:35;5.70;86.10
69189;DHT22;56302;52.322;5.926;2023-01-15T10:17:08;5.70;85.30
69189;DHT22;56302;52.322;5.926;2023-01-15T10:19:38;5.70;85.30
69189;DHT22;56302;52.322;5.926;2023-01-15T10:22:15;5.70;85.10
69189;DHT22;56302;52.322;5.926;2023-01-15T10:24:52;5.70;86.10
69189;DHT22;56302;52.322;5.926;2023-01-15T10:27:26;5.80;85.20
69189;DHT22;56302;52.322;5.926;2023-01-15T10:30:04;5.70;85.80
69189;DHT22;56302;52.322;5.926;2023-01-15T10:32:45;5.70;85.50
69189;DHT22;56302;52.322;5.926;2023-01-15T10:45:45;5.40;89.40
69189;DHT22;56302;52.322;5.926;2023-01-15T10:48:24;5.30;90.60
69189;DHT22;56302;52.322;5.926;2023-01-15T10:50:51;5.20;90.90
69189;DHT22;56302;52.322;5.926;2023-01-15T10:55:59;5.20;92.80
69189;DHT22;56302;52.322;5.926;2023-01-15T10:58:43;5.30;93.00
69189;DHT22;56302;52.322;5.926;2023-01-15T11:01:19;5.50;92.50
69189;DHT22;56302;52.322;5.926;2023-01-15T11:03:48;5.60;91.10
69189;DHT22;56302;52.322;5.926;2023-01-15T11:06:16;5.60;90.70
69189;DHT22;56302;52.322;5.926;2023-01-15T11:08:46;5.60;89.70
69189;DHT22;56302;52.322;5.926;2023-01-15T11:13:53;5.60;88.60
69189;DHT22;56302;52.322;5.926;2023-01-15T11:16:37;5.70;88.00
69189;DHT22;56302;52.322;5.926;2023-01-15T11:19:30;5.70;88.00
69189;DHT22;56302;52.322;5.926;2023-01-15T11:22:11;5.80;86.50
69189;DHT22;56302;52.322;5.926;2023-01-15T11:24:53;5.90;86.30
69189;DHT22;56302;52.322;5.926;2023-01-15T11:27:23;6.00;86.90
69189;DHT22;56302;52.322;5.926;2023-01-15T11:29:51;6.00;86.40
69189;DHT22;56302;52.322;5.926;2023-01-15T11:32:37;6.10;86.20
69189;DHT22;56302;52.322;5.926;2023-01-15T11:35:14;6.10;86.10
69189;DHT22;56302;52.322;5.926;2023-01-15T11:37:40;6.30;85.30
69189;DHT22;56302;52.322;5.926;2023-01-15T11:40:17;6.30;83.70
69189;DHT22;56302;52.322;5.926;2023-01-15T11:42:47;6.20;84.90
69189;DHT22;56302;52.322;5.926;2023-01-15T11:45:32;6.10;85.90
69189;DHT22;56302;52.322;5.926;2023-01-15T11:48:19;6.10;86.90
69189;DHT22;56302;52.322;5.926;2023-01-15T11:51:13;6.00;87.50
69189;DHT22;56302;52.322;5.926;2023-01-15T11:53:47;6.10;86.70
69189;DHT22;56302;52.322;5.926;2023-01-15T11:56:23;6.00;86.90
69189;DHT22;56302;52.322;5.926;2023-01-15T11:58:51;5.90;87.80
69189;DHT22;56302;52.322;5.926;2023-01-15T12:01:39;5.90;88.60
69189;DHT22;56302;52.322;5.926;2023-01-15T12:06:57;5.80;89.80
69189;DHT22;56302;52.322;5.926;2023-01-15T12:12:10;5.80;89.50
69189;DHT22;56302;52.322;5.926;2023-01-15T12:14:50;5.80;89.40
69189;DHT22;56302;52.322;5.926;2023-01-15T12:17:39;5.90;88.80
69189;DHT22;56302;52.322;5.926;2023-01-15T12:22:57;6.00;87.60
69189;DHT22;56302;52.322;5.926;2023-01-15T12:28:24;6.00;87.00
69189;DHT22;56302;52.322;5.926;2023-01-15T12:31:06;5.90;87.60
69189;DHT22;56302;52.322;5.926;2023-01-15T12:33:56;5.90;88.20
69189;DHT22;56302;52.322;5.926;2023-01-15T12:36:40;6.00;88.40
69189;DHT22;56302;52.322;5.926;2023-01-15T12:39:15;6.00;87.60
69189;DHT22;56302;52.322;5.926;2023-01-15T12:41:46;6.00;87.60
69189;DHT22;56302;52.322;5.926;2023-01-15T12:44:35;6.00;88.10
69189;DHT22;56302;52.322;5.926;2023-01-15T12:47:28;6.00;87.20
69189;DHT22;56302;52.322;5.926;2023-01-15T12:50:01;6.00;87.80
69189;DHT22;56302;52.322;5.926;2023-01-15T12:52:33;6.00;88.30
69189;DHT22;56302;52.322;5.926;2023-01-15T12:55:18;6.00;88.90
69189;DHT22;56302;52.322;5.926;2023-01-15T12:57:48;6.00;89.50
69189;DHT22;56302;52.322;5.926;2023-01-15T13:00:34;5.90;90.10
69189;DHT22;56302;52.322;5.926;2023-01-15T13:08:22;5.70;92.30
69189;DHT22;56302;52.322;5.926;2023-01-15T13:10:50;5.70;92.70
69189;DHT22;56302;52.322;5.926;2023-01-15T13:13:21;5.70;93.10
69189;DHT22;56302;52.322;5.926;2023-01-15T13:18:31;5.60;93.30
69189;DHT22;56302;52.322;5.926;2023-01-15T13:21:02;5.70;93.40
69189;DHT22;56302;52.322;5.926;2023-01-15T13:23:39;5.70;93.40
69189;DHT22;56302;52.322;5.926;2023-01-15T13:26:12;5.60;93.40
69189;DHT22;56302;52.322;5.926;2023-01-15T13:29:08;5.70;92.90
69189;DHT22;56302;52.322;5.926;2023-01-15T13:31:57;5.70;93.00
69189;DHT22;56302;52.322;5.926;2023-01-15T13:34:27;5.70;93.40
69189;DHT22;56302;52.322;5.926;2023-01-15T13:36:58;5.70;93.80
69189;DHT22;56302;52.322;5.926;2023-01-15T13:39:35;5.70;93.90
69189;DHT22;56302;52.322;5.926;2023-01-15T13:42:02;5.70;93.70
69189;DHT22;56302;52.322;5.926;2023-01-15T13:44:49;5.70;93.50
69189;DHT22;56302;52.322;5.926;2023-01-15T13:47:22;5.70;93.40
69189;DHT22;56302;52.322;5.926;2023-01-15T13:50:11;5.60;93.70
69189;DHT22;56302;52.322;5.926;2023-01-15T13:52:37;5.70;94.10
69189;DHT22;56302;52.322;5.926;2023-01-15T13:55:20;5.70;94.40
69189;DHT22;56302;52.322;5.926;2023-01-15T13:57:50;5.80;93.90
69189;DHT22;56302;52.322;5.926;2023-01-15T14:00:33;5.80;93.80
69189;DHT22;56302;52.322;5.926;2023-01-15T14:03:02;5.80;93.50
69189;DHT22;56302;52.322;5.926;2023-01-15T14:05:33;5.90;93.10
69189;DHT22;56302;52.322;5.926;2023-01-15T14:08:01;5.90;92.40
69189;DHT22;56302;52.322;5.926;2023-01-15T14:13:14;5.90;91.70
69189;DHT22;56302;52.322;5.926;2023-01-15T14:16:01;6.00;91.30
69189;DHT22;56302;52.322;5.926;2023-01-15T14:18:56;6.00;90.80
69189;DHT22;56302;52.322;5.926;2023-01-15T14:21:50;6.10;91.00
69189;DHT22;56302;52.322;5.926;2023-01-15T14:35:11;6.00;91.00
69189;DHT22;56302;52.322;5.926;2023-01-15T14:37:46;6.00;90.80
69189;DHT22;56302;52.322;5.926;2023-01-15T14:42:47;6.00;91.40
69189;DHT22;56302;52.322;5.926;2023-01-15T14:45:41;6.00;91.80
69189;DHT22;56302;52.322;5.926;2023-01-15T14:48:19;6.00;91.80
69189;DHT22;56302;52.322;5.926;2023-01-15T14:50:46;6.00;92.00
69189;DHT22;56302;52.322;5.926;2023-01-15T14:53:16;5.90;92.30
69189;DHT22;56302;52.322;5.926;2023-01-15T14:58:43;5.80;93.80
69189;DHT22;56302;52.322;5.926;2023-01-15T15:06:52;5.80;94.10
69189;DHT22;56302;52.322;5.926;2023-01-15T15:09:33;5.80;94.20
69189;DHT22;56302;52.322;5.926;2023-01-15T15:12:14;5.70;94.40
69189;DHT22;56302;52.322;5.926;2023-01-15T15:14:50;5.80;94.30
69189;DHT22;56302;52.322;5.926;2023-01-15T15:17:30;5.60;94.60
69189;DHT22;56302;52.322;5.926;2023-01-15T15:22:43;4.90;94.70
69189;DHT22;56302;52.322;5.926;2023-01-15T15:25:18;4.80;95.40
69189;DHT22;56302;52.322;5.926;2023-01-15T15:27:45;4.70;95.80
69189;DHT22;56302;52.322;5.926;2023-01-15T15:30:11;4.70;96.30
69189;DHT22;56302;52.322;5.926;2023-01-15T15:32:38;4.70;96.90
69189;DHT22;56302;52.322;5.926;2023-01-15T15:35:26;4.50;96.40
69189;DHT22;56302;52.322;5.926;2023-01-15T15:37:53;4.00;95.90
69189;DHT22;56302;52.322;5.926;2023-01-15T15:40:23;4.00;96.90
69189;DHT22;56302;52.322;5.926;2023-01-15T15:43:11;4.00;97.40
69189;DHT22;56302;52.322;5.926;2023-01-15T15:45:57;4.10;97.70
69189;DHT22;56302;52.322;5.926;2023-01-15T15:48:44;4.10;98.00
69189;DHT22;56302;52.322;5.926;2023-01-15T15:51:29;4.10;98.20
69189;DHT22;56302;52.322;5.926;2023-01-15T15:56:49;4.10;98.80
69189;DHT22;56302;52.322;5.926;2023-01-15T15:59:51;4.20;99.20
69189;DHT22;56302;52.322;5.926;2023-01-15T16:02:20;4.20;99.30
69189;DHT22;56302;52.322;5.926;2023-01-15T16:04:52;4.30;99.40
69189;DHT22;56302;52.322;5.926;2023-01-15T16:07:29;4.40;99.60
69189;DHT22;56302;52.322;5.926;2023-01-15T16:10:14;4.40;99.80
69189;DHT22;56302;52.322;5.926;2023-01-15T16:12:44;4.40;99.90
69189;DHT22;56302;52.322;5.926;2023-01-15T16:15:15;4.40;99.90
69189;DHT22;56302;52.322;5.926;2023-01-15T16:17:42;4.40;99.90
69189;DHT22;56302;52.322;5.926;2023-01-15T16:20:17;4.40;99.90
69189;DHT22;56302;52.322;5.926;2023-01-15T16:22:47;4.50;99.90
69189;DHT22;56302;52.322;5.926;2023-01-15T16:25:37;4.40;99.90
69189;DHT22;56302;52.322;5.926;2023-01-15T16:28:05;4.40;99.90
69189;DHT22;56302;52.322;5.926;2023-01-15T16:30:31;4.50;99.90
69189;DHT22;56302;52.322;5.926;2023-01-15T16:33:03;4.50;99.90
69189;DHT22;56302;52.322;5.926;2023-01-15T16:35:30;4.50;99.90
69189;DHT22;56302;52.322;5.926;2023-01-15T16:37:59;4.50;99.90
69189;DHT22;56302;52.322;5.926;2023-01-15T16:40:38;4.50;99.90
69189;DHT22;56302;52.322;5.926;2023-01-15T16:43:07;4.50;99.90
69189;DHT22;56302;52.322;5.926;2023-01-15T16:45:35;4.40;99.90
69189;DHT22;56302;52.322;5.926;2023-01-15T16:50:50;4.40;99.90
69189;DHT22;56302;52.322;5.926;2023-01-15T16:56:00;4.30;99.90
69189;DHT22;56302;52.322;5.926;2023-01-15T16:58:38;4.30;99.90
69189;DHT22;56302;52.322;5.926;2023-01-15T17:01:25;4.20;99.90
69189;DHT22;56302;52.322;5.926;2023-01-15T17:03:56;4.20;99.90
69189;DHT22;56302;52.322;5.926;2023-01-15T17:06:25;4.20;99.90
69189;DHT22;56302;52.322;5.926;2023-01-15T17:08:52;4.20;99.90
69189;DHT22;56302;52.322;5.926;2023-01-15T17:11:25;4.20;99.90
69189;DHT22;56302;52.322;5.926;2023-01-15T17:14:26;4.20;99.90
69189;DHT22;56302;52.322;5.926;2023-01-15T17:19:42;4.10;99.90
69189;DHT22;56302;52.322;5.926;2023-01-15T17:22:14;4.20;99.90
69189;DHT22;56302;52.322;5.926;2023-01-15T17:24:52;4.20;99.90
69189;DHT22;56302;52.322;5.926;2023-01-15T17:27:18;4.20;99.90
69189;DHT22;56302;52.322;5.926;2023-01-15T17:29:43;4.20;99.90
69189;DHT22;56302;52.322;5.926;2023-01-15T17:32:35;4.20;99.90
69189;DHT22;56302;52.322;5.926;2023-01-15T17:35:01;4.20;99.90
69189;DHT22;56302;52.322;5.926;2023-01-15T17:37:26;4.20;99.90
69189;DHT22;56302;52.322;5.926;2023-01-15T17:39:52;4.20;99.90
69189;DHT22;56302;52.322;5.926;2023-01-15T17:42:19;4.20;99.90
69189;DHT22;56302;52.322;5.926;2023-01-15T17:44:44;4.20;99.90
69189;DHT22;56302;52.322;5.926;2023-01-15T17:47:10;4.20;99.90
69189;DHT22;56302;52.322;5.926;2023-01-15T17:49:36;4.20;99.90
69189;DHT22;56302;52.322;5.926;2023-01-15T17:52:04;4.20;99.90